createdAt,value
2022-08-20T00:00:41.039Z,3.37
2022-08-20T00:03:25.765Z,4.73
2022-08-20T00:06:00.144Z,4.00
2022-08-20T00:08:27.777Z,3.60
2022-08-20T00:10:55.819Z,3.33
2022-08-20T00:13:31.317Z,3.23
2022-08-20T00:15:58.299Z,4.40
2022-08-20T00:18:26.239Z,3.03
2022-08-20T00:20:54.844Z,3.70
2022-08-20T00:23:22.515Z,4.40
2022-08-20T00:25:50.042Z,5.60
2022-08-20T00:28:17.496Z,4.67
2022-08-20T00:30:45.875Z,4.97
2022-08-20T00:33:17.069Z,3.27
2022-08-20T00:35:47.470Z,3.20
2022-08-20T00:38:14.867Z,5.20
2022-08-20T00:40:47.456Z,3.57
2022-08-20T00:43:45.729Z,3.57
2022-08-20T00:46:30.899Z,6.17
2022-08-20T00:48:59.593Z,4.77
2022-08-20T00:51:48.974Z,9.97
2022-08-20T00:54:18.026Z,6.63
2022-08-20T00:56:49.683Z,6.23
2022-08-20T00:59:22.996Z,3.70
2022-08-20T01:01:56.143Z,5.37
2022-08-20T01:04:26.322Z,3.57
2022-08-20T01:06:53.751Z,4.43
2022-08-20T01:09:50.512Z,5.17
2022-08-20T01:12:09.840Z,4.00
2022-08-20T01:14:36.817Z,4.47
2022-08-20T01:17:07.591Z,4.63
2022-08-20T01:19:55.476Z,3.17
2022-08-20T01:22:53.535Z,4.23
2022-08-20T01:25:49.944Z,2.97
2022-08-20T01:28:22.696Z,2.97
2022-08-20T01:30:49.822Z,3.87
2022-08-20T01:33:22.016Z,4.03
2022-08-20T01:35:50.328Z,2.83
2022-08-20T01:38:18.231Z,4.73
2022-08-20T01:40:57.425Z,2.90
2022-08-20T01:43:24.649Z,4.50
2022-08-20T01:45:53.444Z,3.60
2022-08-20T01:48:21.086Z,3.73
2022-08-20T01:50:55.936Z,2.50
2022-08-20T01:53:33.726Z,3.27
2022-08-20T01:56:03.139Z,2.73
2022-08-20T01:58:29.925Z,5.73
2022-08-20T02:00:57.653Z,3.27
2022-08-20T02:03:25.081Z,4.47
2022-08-20T02:05:53.364Z,4.63
2022-08-20T02:08:21.571Z,4.83
2022-08-20T02:10:48.760Z,4.53
2022-08-20T02:13:15.532Z,4.27
2022-08-20T02:15:43.229Z,6.03
2022-08-20T02:18:13.505Z,3.83
2022-08-20T02:20:41.772Z,3.60
2022-08-20T02:23:09.036Z,3.10
2022-08-20T02:25:40.110Z,4.17
2022-08-20T02:28:11.390Z,2.77
2022-08-20T02:30:44.996Z,3.63
2022-08-20T02:33:14.628Z,5.30
2022-08-20T02:35:42.890Z,3.57
2022-08-20T02:38:11.611Z,3.17
2022-08-20T02:40:38.911Z,2.67
2022-08-20T02:43:06.048Z,3.60
2022-08-20T02:45:43.394Z,3.60
2022-08-20T02:48:15.495Z,2.27
2022-08-20T02:50:43.321Z,2.60
2022-08-20T02:53:10.025Z,2.10
2022-08-20T02:55:36.656Z,2.47
2022-08-20T02:58:03.478Z,2.60
2022-08-20T03:00:34.196Z,1.93
2022-08-20T03:03:07.972Z,2.00
2022-08-20T03:05:35.469Z,2.77
2022-08-20T03:08:03.960Z,2.87
2022-08-20T03:10:33.912Z,2.10
2022-08-20T03:13:02.602Z,3.10
2022-08-20T03:15:31.392Z,2.97
2022-08-20T03:17:58.824Z,2.00
2022-08-20T03:20:26.707Z,3.17
2022-08-20T03:22:54.772Z,3.57
2022-08-20T03:25:22.002Z,4.07
2022-08-20T03:27:54.041Z,3.00
2022-08-20T03:30:24.321Z,2.93
2022-08-20T03:32:51.597Z,3.23
2022-08-20T03:35:21.794Z,1.80
2022-08-20T03:37:49.367Z,3.23
2022-08-20T03:40:20.337Z,2.83
2022-08-20T03:42:47.083Z,3.23
2022-08-20T03:45:18.381Z,3.20
2022-08-20T03:47:48.157Z,2.27
2022-08-20T03:50:23.248Z,2.13
2022-08-20T03:52:52.271Z,3.97
2022-08-20T03:55:20.842Z,3.40
2022-08-20T03:57:53.625Z,2.30
2022-08-20T04:00:27.701Z,1.90
2022-08-20T04:02:55.257Z,3.80
2022-08-20T04:05:29.526Z,2.90
2022-08-20T04:08:02.826Z,2.47
2022-08-20T04:10:30.477Z,1.47
2022-08-20T04:12:57.204Z,2.07
2022-08-20T04:15:24.498Z,2.73
2022-08-20T04:17:52.514Z,3.63
2022-08-20T04:20:23.716Z,2.93
2022-08-20T04:22:58.981Z,1.80
2022-08-20T04:25:29.839Z,1.93
2022-08-20T04:27:58.705Z,2.00
2022-08-20T04:30:26.740Z,1.90
2022-08-20T04:32:54.308Z,1.40
2022-08-20T04:35:21.226Z,2.13
2022-08-20T04:37:48.380Z,2.50
2022-08-20T04:40:36.947Z,2.47
2022-08-20T04:43:05.073Z,1.80
2022-08-20T04:45:33.183Z,3.37
2022-08-20T04:48:05.667Z,2.30
2022-08-20T04:50:37.187Z,2.73
2022-08-20T04:53:05.826Z,2.83
2022-08-20T04:55:33.262Z,2.40
2022-08-20T04:58:12.379Z,2.20
2022-08-20T05:00:40.679Z,2.53
2022-08-20T05:03:07.447Z,2.03
2022-08-20T05:05:38.539Z,2.57
2022-08-20T05:08:05.541Z,1.90
2022-08-20T05:10:44.532Z,2.27
2022-08-20T05:13:11.951Z,2.87
2022-08-20T05:15:39.743Z,3.40
2022-08-20T05:18:08.413Z,2.00
2022-08-20T05:20:40.313Z,4.03
2022-08-20T05:23:09.923Z,2.90
2022-08-20T05:25:38.425Z,2.23
2022-08-20T05:28:10.928Z,3.03
2022-08-20T05:30:40.407Z,3.07
2022-08-20T05:33:08.601Z,2.70
2022-08-20T05:35:40.687Z,2.80
2022-08-20T05:38:11.687Z,3.50
2022-08-20T05:40:40.765Z,3.10
2022-08-20T05:43:07.769Z,2.93
2022-08-20T05:45:39.116Z,3.07
2022-08-20T05:48:11.801Z,2.60
2022-08-20T05:50:39.771Z,1.93
2022-08-20T05:53:07.086Z,4.67
2022-08-20T05:55:35.013Z,1.77
2022-08-20T05:58:04.640Z,2.20
2022-08-20T06:00:33.218Z,3.67
2022-08-20T06:03:18.601Z,3.60
2022-08-20T06:05:45.960Z,2.53
2022-08-20T06:08:13.151Z,3.50
2022-08-20T06:10:40.794Z,3.87
2022-08-20T06:13:13.956Z,3.60
2022-08-20T06:15:41.437Z,2.40
2022-08-20T06:18:19.962Z,4.37
2022-08-20T06:20:56.241Z,2.43
2022-08-20T06:23:25.224Z,3.20
2022-08-20T06:25:52.873Z,2.77
2022-08-20T06:28:20.291Z,3.67
2022-08-20T06:30:47.272Z,2.23
2022-08-20T06:33:14.088Z,2.00
2022-08-20T06:35:41.313Z,2.80
2022-08-20T06:38:11.250Z,3.17
2022-08-20T06:40:38.579Z,2.90
2022-08-20T06:43:09.789Z,3.17
2022-08-20T06:45:38.910Z,1.87
2022-08-20T06:48:15.022Z,3.40
2022-08-20T06:50:47.602Z,3.10
2022-08-20T06:53:18.348Z,3.10
2022-08-20T06:55:49.140Z,2.57
2022-08-20T06:58:35.760Z,2.13
2022-08-20T07:01:09.297Z,3.53
2022-08-20T07:03:38.694Z,3.13
2022-08-20T07:06:05.952Z,2.03
2022-08-20T07:08:33.406Z,3.00
2022-08-20T07:11:00.220Z,3.07
2022-08-20T07:13:28.469Z,1.90
2022-08-20T07:15:56.294Z,2.13
2022-08-20T07:18:28.470Z,3.77
2022-08-20T07:20:57.445Z,2.53
2022-08-20T07:23:26.037Z,1.80
2022-08-20T07:25:53.543Z,1.93
2022-08-20T07:28:23.791Z,1.37
2022-08-20T07:31:13.181Z,2.70
2022-08-20T07:33:41.729Z,5.03
2022-08-20T07:36:09.254Z,3.10
2022-08-20T07:38:37.074Z,2.47
2022-08-20T07:41:07.542Z,2.17
2022-08-20T07:43:34.780Z,3.53
2022-08-20T07:46:03.141Z,1.33
2022-08-20T07:48:31.925Z,2.87
2022-08-20T07:51:01.568Z,1.83
2022-08-20T07:53:31.231Z,3.30
2022-08-20T07:56:08.502Z,2.00
2022-08-20T07:58:36.774Z,1.50
2022-08-20T08:01:05.612Z,1.88
2022-08-20T08:03:39.669Z,2.40
2022-08-20T08:06:29.330Z,2.92
2022-08-20T08:09:03.347Z,2.40
2022-08-20T08:11:33.462Z,2.58
2022-08-20T08:14:00.878Z,2.35
2022-08-20T08:16:28.938Z,2.72
2022-08-20T08:18:56.797Z,1.85
2022-08-20T08:21:24.825Z,2.40
2022-08-20T08:23:53.274Z,2.90
2022-08-20T08:26:20.499Z,3.95
2022-08-20T08:28:47.260Z,3.13
2022-08-20T08:31:14.834Z,2.00
2022-08-20T08:33:42.133Z,2.05
2022-08-20T08:36:14.110Z,1.85
2022-08-20T08:38:43.620Z,2.35
2022-08-20T08:41:14.137Z,1.95
2022-08-20T08:43:41.911Z,2.03
2022-08-20T08:46:11.725Z,2.63
2022-08-20T08:48:45.475Z,3.58
2022-08-20T08:51:16.358Z,2.70
2022-08-20T08:53:56.772Z,2.55
2022-08-20T08:56:26.959Z,2.15
2022-08-20T08:58:55.732Z,2.65
2022-08-20T09:01:56.181Z,3.58
2022-08-20T09:04:13.201Z,3.05
2022-08-20T09:06:40.640Z,2.25
2022-08-20T09:09:17.515Z,2.60
2022-08-20T09:11:47.327Z,2.33
2022-08-20T09:14:14.104Z,2.17
2022-08-20T09:16:52.142Z,2.95
2022-08-20T09:19:21.280Z,1.52
2022-08-20T09:21:48.316Z,2.13
2022-08-20T09:24:15.053Z,2.05
2022-08-20T09:26:41.767Z,2.88
2022-08-20T09:29:08.562Z,1.30
2022-08-20T09:31:35.705Z,2.22
2022-08-20T09:34:04.755Z,2.85
2022-08-20T09:36:32.777Z,2.90
2022-08-20T09:39:00.522Z,1.83
2022-08-20T09:41:30.098Z,2.35
2022-08-20T09:43:56.834Z,2.90
2022-08-20T09:46:26.977Z,3.88
2022-08-20T09:48:54.848Z,4.47
2022-08-20T09:51:22.278Z,2.92
2022-08-20T09:53:49.297Z,2.47
2022-08-20T09:56:16.995Z,2.47
2022-08-20T09:58:53.382Z,3.88
2022-08-20T10:01:22.403Z,4.78
2022-08-20T10:03:50.449Z,2.80
2022-08-20T10:06:20.130Z,4.18
2022-08-20T10:08:47.924Z,3.17
2022-08-20T10:11:14.620Z,3.28
2022-08-20T10:13:41.414Z,2.72
2022-08-20T10:16:08.152Z,4.38
2022-08-20T10:18:36.254Z,4.10
2022-08-20T10:21:03.019Z,3.25
2022-08-20T10:23:29.693Z,3.67
2022-08-20T10:25:56.489Z,2.42
2022-08-20T10:28:23.191Z,2.65
2022-08-20T10:30:49.909Z,3.05
2022-08-20T10:33:16.600Z,4.15
2022-08-20T10:35:43.313Z,2.75
2022-08-20T10:38:10.038Z,2.40
2022-08-20T10:40:36.816Z,3.28
2022-08-20T10:43:03.654Z,2.35
2022-08-20T10:45:30.381Z,3.80
2022-08-20T10:48:00.290Z,4.30
2022-08-20T10:50:30.181Z,2.47
2022-08-20T10:52:57.225Z,4.20
2022-08-20T10:55:24.142Z,3.83
2022-08-20T10:57:50.905Z,5.97
2022-08-20T11:00:19.163Z,2.80
2022-08-20T11:02:46.033Z,3.30
2022-08-20T11:05:12.827Z,3.55
2022-08-20T11:07:50.757Z,2.97
2022-08-20T11:10:30.830Z,2.35
2022-08-20T11:12:57.550Z,3.60
2022-08-20T11:15:24.324Z,2.35
2022-08-20T11:17:51.194Z,3.47
2022-08-20T11:20:19.877Z,2.65
2022-08-20T11:22:46.965Z,1.77
2022-08-20T11:25:14.009Z,2.90
2022-08-20T11:27:44.235Z,2.45
2022-08-20T11:30:39.340Z,2.33
2022-08-20T11:33:06.139Z,3.45
2022-08-20T11:35:48.304Z,2.50
2022-08-20T11:38:17.209Z,2.45
2022-08-20T11:40:44.049Z,2.35
2022-08-20T11:43:16.347Z,2.30
2022-08-20T11:45:46.441Z,3.00
2022-08-20T11:48:13.237Z,2.42
2022-08-20T11:50:40.097Z,3.63
2022-08-20T11:53:07.993Z,2.65
2022-08-20T11:55:35.612Z,2.65
2022-08-20T11:58:02.872Z,2.80
2022-08-20T12:00:33.581Z,2.40
2022-08-20T12:03:02.122Z,2.67
2022-08-20T12:05:30.004Z,3.58
2022-08-20T12:07:59.932Z,2.80
2022-08-20T12:10:28.093Z,3.15
2022-08-20T12:12:55.786Z,2.67
2022-08-20T12:15:25.414Z,2.78
2022-08-20T12:17:52.568Z,2.97
2022-08-20T12:20:19.568Z,2.30
2022-08-20T12:22:46.384Z,3.65
2022-08-20T12:25:13.330Z,3.90
2022-08-20T12:27:41.138Z,2.92
2022-08-20T12:30:11.750Z,5.38
2022-08-20T12:32:38.962Z,2.33
2022-08-20T12:35:07.632Z,3.50
2022-08-20T12:37:34.920Z,2.67
2022-08-20T12:40:09.186Z,3.22
2022-08-20T12:42:36.842Z,2.40
2022-08-20T12:45:04.397Z,2.67
2022-08-20T12:47:33.765Z,3.70
2022-08-20T12:50:05.255Z,2.67
2022-08-20T12:52:32.937Z,2.63
2022-08-20T12:55:00.495Z,4.63
2022-08-20T12:57:28.973Z,4.78
2022-08-20T13:00:01.210Z,3.83
2022-08-20T13:02:30.595Z,3.78
2022-08-20T13:05:00.095Z,3.63
2022-08-20T13:07:29.297Z,4.82
2022-08-20T13:09:55.987Z,3.72
2022-08-20T13:12:22.699Z,5.28
2022-08-20T13:14:49.442Z,3.42
2022-08-20T13:17:18.717Z,3.28
2022-08-20T13:19:46.820Z,4.22
2022-08-20T13:22:14.141Z,4.30
2022-08-20T13:24:41.984Z,4.38
2022-08-20T13:27:13.030Z,3.72
2022-08-20T13:29:58.591Z,3.05
2022-08-20T13:32:25.750Z,3.25
2022-08-20T13:34:52.933Z,4.85
2022-08-20T13:37:27.103Z,4.75
2022-08-20T13:39:55.090Z,3.95
2022-08-20T13:42:22.129Z,4.70
2022-08-20T13:44:49.415Z,4.57
2022-08-20T13:47:43.602Z,3.97
2022-08-20T13:50:17.946Z,3.95
2022-08-20T13:52:45.955Z,4.57
2022-08-20T13:55:16.886Z,4.50
2022-08-20T13:57:44.789Z,4.20
2022-08-20T14:00:16.439Z,5.15
2022-08-20T14:02:43.504Z,3.40
2022-08-20T14:05:12.042Z,4.05
2022-08-20T14:07:41.793Z,5.43
2022-08-20T14:10:13.725Z,3.60
2022-08-20T14:12:40.940Z,3.75
2022-08-20T14:15:09.043Z,4.55
2022-08-20T14:17:42.328Z,3.88
2022-08-20T14:20:15.364Z,2.70
2022-08-20T14:22:43.270Z,4.78
2022-08-20T14:25:12.594Z,3.92
2022-08-20T14:27:40.253Z,4.15
2022-08-20T14:30:10.489Z,4.55
2022-08-20T14:32:37.370Z,4.75
2022-08-20T14:35:05.364Z,3.17
2022-08-20T14:37:38.075Z,4.00
2022-08-20T14:40:08.335Z,4.93
2022-08-20T14:42:35.191Z,3.50
2022-08-20T14:45:02.336Z,2.85
2022-08-20T14:47:34.807Z,3.40
2022-08-20T14:50:06.613Z,4.07
2022-08-20T14:52:36.527Z,4.25
2022-08-20T14:55:10.222Z,3.53
2022-08-20T14:57:38.312Z,4.60
2022-08-20T15:00:09.913Z,4.50
2022-08-20T15:02:37.076Z,2.75
2022-08-20T15:05:07.179Z,3.65
2022-08-20T15:07:37.709Z,2.72
2022-08-20T15:10:08.320Z,3.55
2022-08-20T15:12:35.335Z,3.28
2022-08-20T15:15:13.262Z,2.70
2022-08-20T15:17:48.750Z,4.68
2022-08-20T15:20:20.201Z,4.18
2022-08-20T15:22:47.856Z,5.90
2022-08-20T15:25:16.749Z,3.13
2022-08-20T15:27:44.596Z,3.55
2022-08-20T15:30:16.059Z,3.53
2022-08-20T15:32:43.045Z,2.95
2022-08-20T15:35:11.390Z,4.50
2022-08-20T15:37:47.303Z,3.08
2022-08-20T15:40:18.021Z,3.17
2022-08-20T15:42:46.554Z,4.57
2022-08-20T15:45:21.845Z,5.18
2022-08-20T15:48:12.712Z,2.45
2022-08-20T15:51:07.357Z,3.53
2022-08-20T15:53:46.639Z,6.13
2022-08-20T15:56:25.402Z,4.60
2022-08-20T15:59:13.640Z,6.03
2022-08-20T16:02:02.146Z,3.78
2022-08-20T16:04:28.727Z,3.45
2022-08-20T16:07:13.232Z,3.63
2022-08-20T16:10:15.626Z,5.60
2022-08-20T16:12:48.332Z,4.30
2022-08-20T16:15:22.485Z,4.03
2022-08-20T16:18:00.098Z,4.32
2022-08-20T16:20:40.537Z,5.40
2022-08-20T16:23:09.036Z,3.97
2022-08-20T16:26:13.238Z,6.65
2022-08-20T16:29:04.928Z,4.68
2022-08-20T16:31:44.663Z,5.53
2022-08-20T16:34:36.490Z,7.07
2022-08-20T16:37:06.188Z,6.72
2022-08-20T16:39:42.551Z,4.82
2022-08-20T16:42:10.770Z,5.85
2022-08-20T16:44:48.237Z,5.22
2022-08-20T16:47:30.142Z,4.70
2022-08-20T16:50:16.060Z,4.15
2022-08-20T16:52:45.839Z,4.53
2022-08-20T16:55:13.678Z,5.72
2022-08-20T16:57:40.739Z,5.95
2022-08-20T17:00:19.368Z,6.28
2022-08-20T17:03:06.429Z,5.32
2022-08-20T17:05:55.108Z,7.22
2022-08-20T17:08:46.478Z,5.82
2022-08-20T17:11:17.083Z,5.68
2022-08-20T17:13:47.346Z,6.32
2022-08-20T17:16:14.089Z,8.30
2022-08-20T17:18:50.733Z,4.78
2022-08-20T17:21:29.154Z,6.82
2022-08-20T17:24:02.114Z,6.32
2022-08-20T17:26:35.258Z,6.80
2022-08-20T17:29:21.184Z,4.93
2022-08-20T17:31:51.405Z,7.60
2022-08-20T17:34:27.790Z,5.80
2022-08-20T17:36:59.063Z,4.60
2022-08-20T17:39:28.435Z,6.10
2022-08-20T17:42:04.982Z,8.70
2022-08-20T17:44:37.665Z,5.70
2022-08-20T17:47:12.799Z,6.47
2022-08-20T17:50:00.504Z,6.73
2022-08-20T17:52:47.218Z,5.50
2022-08-20T17:55:13.920Z,5.47
2022-08-20T17:57:44.971Z,6.07
2022-08-20T18:00:24.312Z,5.97
2022-08-20T18:03:11.471Z,5.70
2022-08-20T18:05:39.408Z,6.70
2022-08-20T18:08:20.773Z,7.10
2022-08-20T18:11:09.280Z,5.77
2022-08-20T18:13:51.906Z,6.07
2022-08-20T18:16:29.973Z,5.67
2022-08-20T18:18:59.441Z,5.87
2022-08-20T18:21:40.097Z,8.13
2022-08-20T18:24:25.091Z,12.20
2022-08-20T18:26:54.798Z,6.13
2022-08-20T18:29:27.330Z,5.90
2022-08-20T18:32:00.875Z,7.00
2022-08-20T18:34:31.085Z,6.97
2022-08-20T18:37:22.616Z,6.87
2022-08-20T18:39:50.203Z,7.83
2022-08-20T18:42:25.938Z,5.80
2022-08-20T18:44:54.503Z,5.53
2022-08-20T18:47:38.935Z,8.60
2022-08-20T18:50:16.984Z,8.90
2022-08-20T18:53:04.942Z,7.87
2022-08-20T18:55:40.921Z,11.17
2022-08-20T18:58:13.610Z,10.40
2022-08-20T19:00:47.926Z,8.57
2022-08-20T19:03:20.816Z,5.40
2022-08-20T19:05:56.370Z,7.53
2022-08-20T19:08:35.727Z,6.30
2022-08-20T19:11:30.448Z,6.77
2022-08-20T19:14:19.217Z,6.60
2022-08-20T19:16:51.412Z,7.70
2022-08-20T19:19:23.768Z,6.23
2022-08-20T19:21:52.297Z,7.80
2022-08-20T19:24:26.050Z,7.30
2022-08-20T19:27:00.223Z,9.97
2022-08-20T19:29:42.085Z,7.97
2022-08-20T19:32:37.255Z,6.37
2022-08-20T19:35:07.525Z,6.07
2022-08-20T19:37:50.636Z,6.97
2022-08-20T19:40:24.465Z,7.80
2022-08-20T19:42:57.210Z,7.30
2022-08-20T19:45:29.726Z,5.33
2022-08-20T19:48:12.218Z,6.00
2022-08-20T19:51:11.311Z,6.50
2022-08-20T19:53:45.472Z,5.37
2022-08-20T19:56:16.745Z,5.33
2022-08-20T19:58:44.621Z,5.90
2022-08-20T20:01:18.014Z,8.53
2022-08-20T20:04:03.214Z,6.53
2022-08-20T20:06:36.115Z,8.77
2022-08-20T20:09:13.649Z,7.13
2022-08-20T20:11:52.903Z,6.13
2022-08-20T20:14:24.628Z,7.40
2022-08-20T20:16:52.376Z,6.43
2022-08-20T20:19:28.023Z,7.23
2022-08-20T20:22:19.357Z,5.30
2022-08-20T20:25:07.460Z,5.10
2022-08-20T20:27:36.406Z,5.57
2022-08-20T20:30:10.960Z,6.33
2022-08-20T20:32:46.010Z,4.67
2022-08-20T20:35:30.700Z,5.73
2022-08-20T20:38:08.412Z,4.20
2022-08-20T20:40:48.281Z,7.50
2022-08-20T20:43:36.934Z,6.07
2022-08-20T20:46:15.479Z,7.03
2022-08-20T20:48:46.207Z,4.97
2022-08-20T20:51:15.791Z,7.87
2022-08-20T20:53:54.401Z,5.87
2022-08-20T20:56:32.954Z,7.13
2022-08-20T20:59:05.885Z,6.60
2022-08-20T21:01:48.427Z,5.33
2022-08-20T21:04:20.722Z,4.77
2022-08-20T21:06:47.723Z,5.63
2022-08-20T21:09:14.831Z,7.13
2022-08-20T21:11:41.477Z,6.37
2022-08-20T21:14:08.254Z,8.53
2022-08-20T21:16:34.948Z,6.73
2022-08-20T21:19:05.180Z,8.70
2022-08-20T21:21:32.097Z,4.87
2022-08-20T21:23:59.045Z,10.20
2022-08-20T21:26:27.757Z,6.57
2022-08-20T21:28:55.970Z,7.33
2022-08-20T21:31:29.915Z,6.70
2022-08-20T21:33:56.677Z,9.13
2022-08-20T21:36:23.386Z,7.50
2022-08-20T21:38:50.082Z,8.13
2022-08-20T21:41:17.231Z,7.47
2022-08-20T21:43:43.906Z,7.77
2022-08-20T21:46:14.550Z,9.37
2022-08-20T21:48:46.358Z,7.30
2022-08-20T21:51:14.749Z,10.00
2022-08-20T21:54:11.826Z,10.77
2022-08-20T21:56:41.893Z,8.03
2022-08-20T21:59:10.220Z,9.40
2022-08-20T22:01:38.166Z,9.03
2022-08-20T22:04:08.584Z,6.83
2022-08-20T22:06:35.414Z,8.30
2022-08-20T22:09:02.482Z,7.00
2022-08-20T22:11:29.316Z,11.40
2022-08-20T22:13:56.538Z,7.33
2022-08-20T22:16:24.219Z,9.50
2022-08-20T22:18:51.643Z,9.57
2022-08-20T22:21:27.117Z,8.63
2022-08-20T22:23:57.953Z,7.63
2022-08-20T22:26:27.327Z,8.00
2022-08-20T22:28:54.684Z,8.47
2022-08-20T22:31:25.961Z,11.67
2022-08-20T22:33:52.929Z,11.27
2022-08-20T22:36:19.673Z,9.47
2022-08-20T22:38:47.816Z,8.63
2022-08-20T22:41:21.902Z,8.90
2022-08-20T22:43:56.515Z,7.60
2022-08-20T22:46:27.263Z,10.03
2022-08-20T22:48:54.875Z,9.43
2022-08-20T22:51:27.272Z,11.40
2022-08-20T22:53:54.168Z,9.90
2022-08-20T22:56:22.016Z,5.47
2022-08-20T22:58:50.424Z,9.57
2022-08-20T23:01:18.430Z,9.77
2022-08-20T23:03:45.310Z,9.30
2022-08-20T23:06:12.623Z,8.00
2022-08-20T23:08:41.746Z,7.37
2022-08-20T23:11:08.867Z,5.63
2022-08-20T23:13:35.609Z,8.93
2022-08-20T23:16:02.781Z,7.23
2022-08-20T23:18:29.789Z,7.07
2022-08-20T23:20:57.218Z,10.33
2022-08-20T23:23:25.374Z,7.67
2022-08-20T23:25:53.214Z,7.70
2022-08-20T23:28:22.536Z,6.67
2022-08-20T23:30:49.950Z,6.47
2022-08-20T23:33:16.903Z,7.30
2022-08-20T23:35:45.602Z,5.37
2022-08-20T23:38:12.701Z,7.90
2022-08-20T23:40:40.055Z,8.70
2022-08-20T23:43:07.597Z,7.00
2022-08-20T23:45:35.267Z,6.70
2022-08-20T23:48:07.746Z,8.37
2022-08-20T23:50:35.615Z,10.63
2022-08-20T23:53:02.590Z,8.07
2022-08-20T23:55:29.456Z,7.67
2022-08-20T23:57:56.182Z,9.47
